Backmoor, United Kingdom
Current Conditions -  °F | °C
As of 2:50 AM on Monday 24 Nov 2014 (Local Time) from EGCN Reporting Station
Clear Clear  
Wind Chill: 30°   Ceiling: Unl
Heat Index: 34°   Visibility: 6mi
Dew Point: 34°   Wind: 5mph
Humidity: 100%   Direction: 250°WSW
Pressure: 30.21"   Gusts: NA
Location:  53.36°N, 1.43°W
Report Text: EGCN 240250Z 25004KT CAVOK 01/01 Q1023
Loading
Personal Weather Stations






























Interactive Weather Map New forecast layout! Learn more

10-Day Weather Forecast

Advertisements
Track Severe Weather on mobile